createdAt,value
2023-04-26T00:01:59.021Z,7.80
2023-04-26T00:04:26.026Z,8.60
2023-04-26T00:06:53.100Z,7.90
2023-04-26T00:09:20.015Z,8.15
2023-04-26T00:11:47.499Z,8.70
2023-04-26T00:14:15.413Z,7.95
2023-04-26T00:16:42.635Z,8.05
2023-04-26T00:19:10.402Z,8.20
2023-04-26T00:21:37.490Z,8.57
2023-04-26T00:24:05.979Z,8.95
2023-04-26T00:26:34.802Z,8.60
2023-04-26T00:29:03.227Z,8.07
2023-04-26T00:31:30.285Z,7.95
2023-04-26T00:33:57.325Z,7.68
2023-04-26T00:36:24.277Z,7.72
2023-04-26T00:38:51.456Z,7.60
2023-04-26T00:41:18.429Z,7.90
2023-04-26T00:43:45.924Z,8.05
2023-04-26T00:46:13.175Z,6.78
2023-04-26T00:48:40.229Z,8.10
2023-04-26T00:51:08.224Z,7.90
2023-04-26T00:53:35.831Z,8.20
2023-04-26T00:56:03.778Z,7.90
2023-04-26T00:58:30.983Z,8.13
2023-04-26T01:00:58.880Z,8.68
2023-04-26T01:03:26.959Z,7.93
2023-04-26T01:05:54.991Z,8.43
2023-04-26T01:08:23.950Z,8.63
2023-04-26T01:10:51.342Z,8.40
2023-04-26T01:13:18.603Z,8.55
2023-04-26T01:15:49.379Z,9.13
2023-04-26T01:18:16.410Z,8.15
2023-04-26T01:20:43.380Z,8.80
2023-04-26T01:23:11.932Z,8.32
2023-04-26T01:25:39.266Z,8.32
2023-04-26T01:28:06.407Z,8.35
2023-04-26T01:30:33.620Z,8.40
2023-04-26T01:33:00.518Z,8.88
2023-04-26T01:35:27.766Z,8.27
2023-04-26T01:37:55.012Z,8.48
2023-04-26T01:40:22.224Z,8.10
2023-04-26T01:42:49.322Z,8.80
2023-04-26T01:45:16.369Z,8.70
2023-04-26T01:47:43.394Z,8.13
2023-04-26T01:50:11.163Z,8.80
2023-04-26T01:52:38.038Z,8.60
2023-04-26T01:55:05.754Z,8.57
2023-04-26T01:57:32.622Z,8.05
2023-04-26T01:59:59.680Z,8.25
2023-04-26T02:02:26.972Z,8.20
2023-04-26T02:04:54.008Z,8.05
2023-04-26T02:07:20.975Z,7.60
2023-04-26T02:09:48.095Z,9.20
2023-04-26T02:12:15.069Z,7.80
2023-04-26T02:14:41.972Z,8.57
2023-04-26T02:17:11.978Z,8.63
2023-04-26T02:19:39.242Z,7.80
2023-04-26T02:22:06.641Z,7.88
2023-04-26T02:24:33.798Z,9.30
2023-04-26T02:27:04.041Z,8.75
2023-04-26T02:29:43.860Z,7.10
2023-04-26T02:32:12.959Z,8.25
2023-04-26T02:34:39.860Z,8.20
2023-04-26T02:37:07.823Z,8.15
2023-04-26T02:39:35.044Z,8.05
2023-04-26T02:42:02.179Z,8.00
2023-04-26T02:44:32.281Z,8.07
2023-04-26T02:46:59.763Z,8.13
2023-04-26T02:49:26.775Z,6.88
2023-04-26T02:51:53.670Z,7.22
2023-04-26T02:54:20.806Z,7.40
2023-04-26T02:56:47.723Z,7.70
2023-04-26T02:59:14.669Z,7.57
2023-04-26T03:01:41.708Z,8.15
2023-04-26T03:04:08.767Z,8.25
2023-04-26T03:06:36.321Z,8.00
2023-04-26T03:09:03.286Z,7.10
2023-04-26T03:11:30.318Z,7.75
2023-04-26T03:13:57.188Z,7.55
2023-04-26T03:16:24.337Z,7.05
2023-04-26T03:18:51.598Z,8.27
2023-04-26T03:21:18.670Z,8.32
2023-04-26T03:23:45.617Z,7.13
2023-04-26T03:26:12.745Z,6.82
2023-04-26T03:28:39.691Z,6.03
2023-04-26T03:31:06.750Z,6.10
2023-04-26T03:33:33.700Z,6.65
2023-04-26T03:36:00.667Z,5.40
2023-04-26T03:38:27.734Z,5.22
2023-04-26T03:40:54.672Z,5.80
2023-04-26T03:43:21.708Z,6.35
2023-04-26T03:45:49.950Z,5.82
2023-04-26T03:48:17.449Z,6.03
2023-04-26T03:50:46.203Z,5.95
2023-04-26T03:53:13.201Z,5.55
2023-04-26T03:55:40.436Z,5.93
2023-04-26T03:58:08.446Z,5.95
2023-04-26T04:00:39.408Z,5.07
2023-04-26T04:03:07.854Z,5.40
2023-04-26T04:05:35.206Z,5.22
2023-04-26T04:08:02.462Z,5.13
2023-04-26T04:10:29.738Z,5.65
2023-04-26T04:12:56.628Z,4.63
2023-04-26T04:15:23.718Z,5.20
2023-04-26T04:17:50.656Z,5.43
2023-04-26T04:20:17.667Z,5.25
2023-04-26T04:22:44.928Z,5.28
2023-04-26T04:25:12.017Z,5.00
2023-04-26T04:27:39.156Z,5.35
2023-04-26T04:30:08.764Z,4.95
2023-04-26T04:32:37.161Z,5.32
2023-04-26T04:35:05.617Z,5.38
2023-04-26T04:37:35.681Z,5.70
2023-04-26T04:40:02.643Z,5.03
2023-04-26T04:42:29.603Z,5.95
2023-04-26T04:44:57.276Z,5.38
2023-04-26T04:47:24.885Z,5.47
2023-04-26T04:49:51.920Z,5.60
2023-04-26T04:52:20.353Z,5.70
2023-04-26T04:54:47.696Z,6.43
2023-04-26T04:57:14.622Z,6.30
2023-04-26T04:59:41.698Z,5.65
2023-04-26T05:02:08.625Z,5.97
2023-04-26T05:04:36.318Z,6.32
2023-04-26T05:07:03.365Z,5.53
2023-04-26T05:09:30.264Z,5.20
2023-04-26T05:11:57.610Z,6.07
2023-04-26T05:14:24.504Z,6.47
2023-04-26T05:16:51.512Z,5.40
2023-04-26T05:19:18.629Z,5.18
2023-04-26T05:21:45.526Z,8.75
2023-04-26T05:24:12.425Z,6.07
2023-04-26T05:26:39.349Z,5.88
2023-04-26T05:29:06.535Z,5.70
2023-04-26T05:31:33.706Z,6.22
2023-04-26T05:34:00.645Z,5.28
2023-04-26T05:36:29.986Z,5.47
2023-04-26T05:38:57.003Z,5.82
2023-04-26T05:41:24.079Z,6.07
2023-04-26T05:43:51.506Z,5.80
2023-04-26T05:46:18.594Z,5.90
2023-04-26T05:48:46.332Z,6.40
2023-04-26T05:51:13.221Z,6.82
2023-04-26T05:53:40.454Z,5.93
2023-04-26T05:56:07.712Z,5.85
2023-04-26T05:58:34.698Z,5.32
2023-04-26T06:01:01.960Z,4.88
2023-04-26T06:03:29.168Z,5.45
2023-04-26T06:05:56.748Z,5.38
2023-04-26T06:08:23.697Z,5.60
2023-04-26T06:10:50.879Z,6.45
2023-04-26T06:13:18.122Z,6.13
2023-04-26T06:15:45.587Z,6.35
2023-04-26T06:18:12.860Z,5.90
2023-04-26T06:20:39.842Z,5.90
2023-04-26T06:23:06.959Z,5.53
2023-04-26T06:25:34.521Z,5.63
2023-04-26T06:28:01.461Z,5.50
2023-04-26T06:30:28.513Z,5.57
2023-04-26T06:32:55.799Z,5.75
2023-04-26T06:35:24.964Z,6.47
2023-04-26T06:37:52.284Z,5.78
2023-04-26T06:40:19.305Z,6.10
2023-04-26T06:42:46.449Z,6.55
2023-04-26T06:45:13.394Z,6.28
2023-04-26T06:47:40.800Z,6.32
2023-04-26T06:50:08.866Z,6.00
2023-04-26T06:52:35.802Z,5.85
2023-04-26T06:55:03.913Z,5.90
2023-04-26T06:57:31.098Z,6.03
2023-04-26T06:59:58.458Z,6.35
2023-04-26T07:02:25.706Z,7.00
2023-04-26T07:04:53.346Z,6.55
2023-04-26T07:07:20.544Z,6.60
2023-04-26T07:09:47.860Z,6.60
2023-04-26T07:12:14.978Z,5.72
2023-04-26T07:14:43.582Z,6.50
2023-04-26T07:17:11.076Z,6.28
2023-04-26T07:19:37.995Z,6.00
2023-04-26T07:22:05.282Z,6.85
2023-04-26T07:24:32.402Z,6.55
2023-04-26T07:26:59.424Z,6.13
2023-04-26T07:29:26.486Z,6.00
2023-04-26T07:31:53.366Z,5.65
2023-04-26T07:34:20.340Z,5.65
2023-04-26T07:36:47.217Z,5.88
2023-04-26T07:39:15.688Z,4.47
2023-04-26T07:41:44.188Z,5.60
2023-04-26T07:44:11.693Z,5.57
2023-04-26T07:46:38.674Z,4.35
2023-04-26T07:49:05.630Z,5.15
2023-04-26T07:51:32.590Z,4.00
2023-04-26T07:53:59.555Z,3.90
2023-04-26T07:56:26.464Z,4.38
2023-04-26T07:58:53.427Z,4.38
2023-04-26T08:01:20.326Z,4.20
2023-04-26T08:03:49.355Z,4.70
2023-04-26T08:06:17.023Z,4.47
2023-04-26T08:08:50.918Z,4.40
2023-04-26T08:11:18.491Z,4.53
2023-04-26T08:13:45.458Z,4.28
2023-04-26T08:16:12.813Z,3.60
2023-04-26T08:18:39.952Z,3.70
2023-04-26T08:21:07.154Z,4.03
2023-04-26T08:23:38.532Z,3.90
2023-04-26T08:26:06.738Z,4.07
2023-04-26T08:28:33.820Z,4.20
2023-04-26T08:31:00.734Z,4.10
2023-04-26T08:33:27.780Z,4.28
2023-04-26T08:35:55.261Z,4.30
2023-04-26T08:38:24.973Z,4.20
2023-04-26T08:40:52.124Z,4.20
2023-04-26T08:43:19.023Z,3.75
2023-04-26T08:45:47.539Z,3.65
2023-04-26T08:48:18.666Z,3.80
2023-04-26T08:50:49.633Z,2.97
2023-04-26T08:53:21.971Z,3.08
2023-04-26T08:55:52.220Z,3.03
2023-04-26T08:58:19.543Z,2.67
2023-04-26T09:00:46.842Z,3.17
2023-04-26T09:03:14.239Z,3.13
2023-04-26T09:05:45.942Z,2.65
2023-04-26T09:08:22.894Z,2.80
2023-04-26T09:10:49.944Z,3.33
2023-04-26T09:13:16.854Z,3.03
2023-04-26T09:15:43.797Z,3.15
2023-04-26T09:18:24.204Z,3.30
2023-04-26T09:21:09.237Z,2.63
2023-04-26T09:23:36.297Z,3.00
2023-04-26T09:26:25.231Z,3.08
2023-04-26T09:29:14.007Z,3.00
2023-04-26T09:31:49.712Z,3.42
2023-04-26T09:34:17.202Z,3.53
2023-04-26T09:36:58.046Z,2.90
2023-04-26T09:39:37.892Z,3.60
2023-04-26T09:42:06.239Z,2.95
2023-04-26T09:44:33.963Z,3.58
2023-04-26T09:47:06.217Z,3.13
2023-04-26T09:49:48.757Z,3.22
2023-04-26T09:52:16.576Z,3.50
2023-04-26T09:54:47.701Z,3.30
2023-04-26T09:57:17.577Z,2.92
2023-04-26T09:59:49.382Z,3.58
2023-04-26T10:02:20.691Z,3.40
2023-04-26T10:04:51.036Z,3.50
2023-04-26T10:07:21.972Z,3.20
2023-04-26T10:09:50.007Z,3.30
2023-04-26T10:12:19.653Z,3.42
2023-04-26T10:14:47.592Z,3.10
2023-04-26T10:17:15.212Z,3.70
2023-04-26T10:19:47.312Z,3.63
2023-04-26T10:22:40.319Z,4.00
2023-04-26T10:25:10.156Z,3.40
2023-04-26T10:27:47.241Z,3.58
2023-04-26T10:30:23.316Z,3.50
2023-04-26T10:32:56.152Z,3.60
2023-04-26T10:35:29.394Z,3.75
2023-04-26T10:38:02.323Z,3.70
2023-04-26T10:40:36.416Z,3.78
2023-04-26T10:43:10.080Z,4.15
2023-04-26T10:45:38.487Z,4.20
2023-04-26T10:48:29.048Z,3.83
2023-04-26T10:51:02.416Z,3.55
2023-04-26T10:53:53.415Z,3.65
2023-04-26T10:56:23.848Z,3.55
2023-04-26T10:59:30.657Z,3.63
2023-04-26T11:02:01.508Z,3.97
2023-04-26T11:04:54.348Z,3.40
2023-04-26T11:07:38.523Z,3.92
2023-04-26T11:10:12.717Z,4.18
2023-04-26T11:12:42.704Z,3.92
2023-04-26T11:15:13.202Z,3.95
2023-04-26T11:17:40.418Z,3.95
2023-04-26T11:20:16.604Z,3.90
2023-04-26T11:22:43.916Z,4.10
2023-04-26T11:25:13.553Z,4.00
2023-04-26T11:27:43.710Z,3.55
2023-04-26T11:30:11.964Z,3.75
2023-04-26T11:32:38.914Z,4.10
2023-04-26T11:35:06.741Z,3.70
2023-04-26T11:37:35.096Z,4.30
2023-04-26T11:40:02.253Z,3.47
2023-04-26T11:42:29.165Z,3.80
2023-04-26T11:44:57.783Z,3.95
2023-04-26T11:47:26.354Z,4.00
2023-04-26T11:49:53.792Z,3.72
2023-04-26T11:52:20.792Z,4.00
2023-04-26T11:54:47.745Z,4.35
2023-04-26T11:57:19.770Z,3.95
2023-04-26T11:59:47.100Z,4.40
2023-04-26T12:02:14.592Z,4.40
2023-04-26T12:04:42.063Z,3.85
2023-04-26T12:07:09.904Z,4.05
2023-04-26T12:09:44.786Z,3.60
2023-04-26T12:12:11.769Z,4.40
2023-04-26T12:14:40.606Z,3.80
2023-04-26T12:17:08.931Z,3.67
2023-04-26T12:19:41.263Z,4.35
2023-04-26T12:22:09.395Z,4.30
2023-04-26T12:24:37.132Z,4.40
2023-04-26T12:27:08.990Z,4.25
2023-04-26T12:29:36.216Z,4.82
2023-04-26T12:32:03.927Z,4.00
2023-04-26T12:34:31.311Z,3.90
2023-04-26T12:36:58.391Z,4.53
2023-04-26T12:39:25.643Z,4.53
2023-04-26T12:41:52.622Z,4.07
2023-04-26T12:44:21.881Z,5.05
2023-04-26T12:46:49.490Z,4.50
2023-04-26T12:49:16.826Z,4.18
2023-04-26T12:51:43.721Z,4.20
2023-04-26T12:54:10.664Z,4.25
2023-04-26T12:56:44.164Z,4.15
2023-04-26T12:59:11.351Z,3.70
2023-04-26T13:01:38.336Z,4.35
2023-04-26T13:04:06.422Z,4.05
2023-04-26T13:06:34.763Z,3.92
2023-04-26T13:09:02.176Z,3.97
2023-04-26T13:11:29.128Z,3.97
2023-04-26T13:13:56.198Z,4.65
2023-04-26T13:16:23.291Z,4.50
2023-04-26T13:18:50.211Z,4.07
2023-04-26T13:21:17.690Z,3.88
2023-04-26T13:23:44.638Z,4.15
2023-04-26T13:26:11.690Z,4.25
2023-04-26T13:28:38.616Z,4.10
2023-04-26T13:31:05.564Z,3.92
2023-04-26T13:33:32.994Z,3.80
2023-04-26T13:35:59.875Z,3.97
2023-04-26T13:38:27.143Z,4.05
2023-04-26T13:40:54.389Z,4.05
2023-04-26T13:43:21.360Z,4.32
2023-04-26T13:45:48.433Z,3.50
2023-04-26T13:48:15.840Z,3.78
2023-04-26T13:50:42.975Z,3.42
2023-04-26T13:53:10.313Z,3.70
2023-04-26T13:55:37.218Z,3.80
2023-04-26T13:58:04.112Z,4.00
2023-04-26T14:00:31.174Z,3.58
2023-04-26T14:02:59.123Z,3.22
2023-04-26T14:05:26.126Z,3.72
2023-04-26T14:07:54.943Z,4.05
2023-04-26T14:10:22.273Z,3.58
2023-04-26T14:12:49.575Z,3.58
2023-04-26T14:15:17.060Z,3.22
2023-04-26T14:17:46.919Z,3.60
2023-04-26T14:20:14.105Z,2.90
2023-04-26T14:22:41.252Z,3.28
2023-04-26T14:25:11.310Z,3.90
2023-04-26T14:27:39.638Z,3.40
2023-04-26T14:30:07.985Z,3.85
2023-04-26T14:32:34.902Z,3.60
2023-04-26T14:35:01.811Z,3.70
2023-04-26T14:37:28.705Z,4.10
2023-04-26T14:39:55.617Z,4.30
2023-04-26T14:42:22.754Z,3.70
2023-04-26T14:44:50.001Z,3.30
2023-04-26T14:47:16.922Z,3.90
2023-04-26T14:49:44.237Z,4.18
2023-04-26T14:52:11.309Z,3.85
2023-04-26T14:54:41.875Z,4.18
2023-04-26T14:57:10.757Z,3.53
2023-04-26T14:59:37.839Z,4.03
2023-04-26T15:02:05.451Z,4.13
2023-04-26T15:04:32.905Z,4.15
2023-04-26T15:07:00.117Z,3.88
2023-04-26T15:09:29.778Z,3.75
2023-04-26T15:11:57.366Z,3.97
2023-04-26T15:14:24.472Z,4.22
2023-04-26T15:16:51.541Z,4.25
2023-04-26T15:19:18.815Z,4.00
2023-04-26T15:21:45.769Z,4.40
2023-04-26T15:24:12.657Z,3.72
2023-04-26T15:26:39.702Z,4.07
2023-04-26T15:29:06.770Z,4.50
2023-04-26T15:31:34.703Z,3.83
2023-04-26T15:34:02.804Z,3.83
2023-04-26T15:36:29.760Z,3.97
2023-04-26T15:38:56.975Z,4.18
2023-04-26T15:41:23.891Z,4.35
2023-04-26T15:43:57.709Z,4.32
2023-04-26T15:46:25.048Z,4.00
2023-04-26T15:48:52.034Z,4.20
2023-04-26T15:51:19.013Z,4.47
2023-04-26T15:53:45.927Z,4.10
2023-04-26T15:56:18.059Z,4.13
2023-04-26T15:58:45.921Z,4.18
2023-04-26T16:01:13.835Z,3.97
2023-04-26T16:03:42.670Z,3.70
2023-04-26T16:06:11.848Z,4.10
2023-04-26T16:08:40.613Z,4.03
2023-04-26T16:11:07.922Z,3.80
2023-04-26T16:13:35.018Z,3.63
2023-04-26T16:16:02.095Z,3.90
2023-04-26T16:18:29.008Z,4.78
2023-04-26T16:21:04.958Z,3.47
2023-04-26T16:23:32.006Z,3.55
2023-04-26T16:25:59.021Z,3.90
2023-04-26T16:28:26.459Z,4.28
2023-04-26T16:30:53.871Z,4.03
2023-04-26T16:33:22.873Z,3.80
2023-04-26T16:35:55.697Z,4.28
2023-04-26T16:38:23.225Z,4.07
2023-04-26T16:40:58.686Z,4.25
2023-04-26T16:43:27.368Z,4.00
2023-04-26T16:46:05.072Z,3.97
2023-04-26T16:48:35.861Z,3.85
2023-04-26T16:51:07.148Z,3.70
2023-04-26T16:53:35.337Z,3.80
2023-04-26T16:56:02.751Z,4.03
2023-04-26T16:58:29.854Z,4.38
2023-04-26T17:00:57.056Z,4.30
2023-04-26T17:03:24.782Z,4.18
2023-04-26T17:05:52.247Z,4.13
2023-04-26T17:08:19.871Z,3.83
2023-04-26T17:10:47.691Z,4.65
2023-04-26T17:13:18.004Z,4.80
2023-04-26T17:15:45.396Z,4.65
2023-04-26T17:18:12.630Z,4.28
2023-04-26T17:20:39.614Z,4.60
2023-04-26T17:23:08.088Z,4.43
2023-04-26T17:25:35.093Z,6.00
2023-04-26T17:28:02.174Z,4.72
2023-04-26T17:30:29.234Z,4.68
2023-04-26T17:32:56.232Z,4.40
2023-04-26T17:35:23.160Z,5.00
2023-04-26T17:37:50.669Z,4.65
2023-04-26T17:40:18.951Z,4.80
2023-04-26T17:42:46.574Z,4.72
2023-04-26T17:45:14.599Z,4.38
2023-04-26T17:47:43.255Z,4.22
2023-04-26T17:50:10.846Z,4.10
2023-04-26T17:52:38.594Z,4.43
2023-04-26T17:55:08.420Z,4.03
2023-04-26T17:57:38.046Z,4.57
2023-04-26T18:00:10.434Z,4.90
2023-04-26T18:02:37.850Z,4.85
2023-04-26T18:05:08.724Z,5.40
2023-04-26T18:07:35.673Z,5.13
2023-04-26T18:10:02.676Z,5.07
2023-04-26T18:12:32.101Z,4.88
2023-04-26T18:14:59.471Z,5.32
2023-04-26T18:17:26.554Z,5.40
2023-04-26T18:19:53.459Z,5.38
2023-04-26T18:22:20.632Z,6.43
2023-04-26T18:24:47.556Z,6.13
2023-04-26T18:27:14.634Z,6.13
2023-04-26T18:29:41.785Z,6.03
2023-04-26T18:32:08.689Z,5.57
2023-04-26T18:34:36.505Z,5.90
2023-04-26T18:37:03.387Z,5.90
2023-04-26T18:39:30.694Z,5.18
2023-04-26T18:41:57.777Z,5.55
2023-04-26T18:44:26.488Z,6.28
2023-04-26T18:46:56.045Z,6.20
2023-04-26T18:49:24.236Z,5.57
2023-04-26T18:51:51.276Z,5.80
2023-04-26T18:54:18.480Z,5.82
2023-04-26T18:56:45.749Z,5.38
2023-04-26T18:59:13.220Z,6.07
2023-04-26T19:01:41.503Z,5.22
2023-04-26T19:04:10.489Z,5.40
2023-04-26T19:06:38.069Z,4.93
2023-04-26T19:09:07.341Z,5.32
2023-04-26T19:11:34.909Z,5.15
2023-04-26T19:14:02.615Z,5.45
2023-04-26T19:16:31.203Z,5.35
2023-04-26T19:18:58.481Z,6.05
2023-04-26T19:21:25.449Z,6.28
2023-04-26T19:23:52.493Z,5.47
2023-04-26T19:26:19.721Z,5.18
2023-04-26T19:28:46.955Z,5.80
2023-04-26T19:31:14.362Z,6.20
2023-04-26T19:33:41.742Z,5.70
2023-04-26T19:36:09.866Z,5.43
2023-04-26T19:38:36.764Z,5.18
2023-04-26T19:41:03.693Z,5.55
2023-04-26T19:43:30.916Z,5.15
2023-04-26T19:45:57.810Z,4.95
2023-04-26T19:48:24.794Z,5.22
2023-04-26T19:50:52.148Z,5.35
2023-04-26T19:53:19.144Z,5.63
2023-04-26T19:55:46.724Z,5.22
2023-04-26T19:58:13.674Z,5.43
2023-04-26T20:00:40.844Z,5.95
2023-04-26T20:03:08.465Z,5.85
2023-04-26T20:05:35.599Z,5.68
2023-04-26T20:08:02.885Z,6.47
2023-04-26T20:10:34.326Z,6.22
2023-04-26T20:13:01.725Z,6.47
2023-04-26T20:15:32.205Z,6.88
2023-04-26T20:18:00.687Z,6.85
2023-04-26T20:20:28.893Z,6.90
2023-04-26T20:22:55.812Z,7.15
2023-04-26T20:25:22.966Z,7.03
2023-04-26T20:27:50.657Z,6.72
2023-04-26T20:30:17.535Z,7.57
2023-04-26T20:32:44.542Z,7.28
2023-04-26T20:35:13.908Z,7.15
2023-04-26T20:37:40.918Z,6.10
2023-04-26T20:40:09.506Z,7.60
2023-04-26T20:42:36.629Z,7.10
2023-04-26T20:45:04.160Z,7.10
2023-04-26T20:47:31.558Z,7.15
2023-04-26T20:49:59.232Z,7.38
2023-04-26T20:52:27.272Z,11.43
2023-04-26T20:54:56.706Z,9.57
2023-04-26T20:57:24.980Z,9.57
2023-04-26T20:59:51.902Z,9.75
2023-04-26T21:02:19.094Z,8.82
2023-04-26T21:04:46.602Z,8.50
2023-04-26T21:07:13.737Z,8.75
2023-04-26T21:09:40.769Z,8.00
2023-04-26T21:12:07.714Z,7.72
2023-04-26T21:14:34.835Z,8.90
2023-04-26T21:17:01.736Z,7.93
2023-04-26T21:19:28.762Z,7.70
2023-04-26T21:21:55.892Z,6.80
2023-04-26T21:24:22.878Z,6.93
2023-04-26T21:26:49.826Z,7.00
2023-04-26T21:29:16.741Z,7.78
2023-04-26T21:31:43.812Z,7.30
2023-04-26T21:34:11.111Z,8.20
2023-04-26T21:36:38.102Z,7.43
2023-04-26T21:39:04.968Z,7.28
2023-04-26T21:41:32.316Z,6.68
2023-04-26T21:43:59.208Z,8.27
2023-04-26T21:46:26.571Z,7.35
2023-04-26T21:48:53.711Z,7.15
2023-04-26T21:51:20.792Z,7.43
2023-04-26T21:53:47.727Z,8.10
2023-04-26T21:56:15.030Z,8.40
2023-04-26T21:58:42.337Z,9.02
2023-04-26T22:01:15.336Z,8.38
2023-04-26T22:03:42.727Z,9.52
2023-04-26T22:06:11.436Z,8.20
2023-04-26T22:08:38.857Z,8.77
2023-04-26T22:11:06.178Z,7.57
2023-04-26T22:13:33.487Z,7.47
2023-04-26T22:16:00.443Z,8.30
2023-04-26T22:18:28.786Z,7.38
2023-04-26T22:20:55.703Z,7.82
2023-04-26T22:23:22.615Z,7.22
2023-04-26T22:25:49.532Z,8.13
2023-04-26T22:28:16.769Z,7.30
2023-04-26T22:30:43.864Z,8.95
2023-04-26T22:33:12.504Z,8.63
2023-04-26T22:35:39.708Z,8.73
2023-04-26T22:38:06.696Z,8.68
2023-04-26T22:40:33.807Z,8.52
2023-04-26T22:43:01.149Z,9.98
2023-04-26T22:45:28.290Z,9.43
2023-04-26T22:47:55.518Z,9.57
2023-04-26T22:50:22.607Z,10.32
2023-04-26T22:52:50.217Z,8.93
2023-04-26T22:55:17.942Z,9.65
2023-04-26T22:57:45.001Z,9.68
2023-04-26T23:00:14.403Z,9.00
2023-04-26T23:02:41.444Z,9.85
2023-04-26T23:05:12.202Z,10.52
2023-04-26T23:07:40.035Z,7.82
2023-04-26T23:10:08.003Z,10.15
2023-04-26T23:12:36.392Z,10.57
2023-04-26T23:15:05.503Z,9.95
2023-04-26T23:17:34.415Z,10.10
2023-04-26T23:20:01.537Z,9.80
2023-04-26T23:22:28.843Z,10.05
2023-04-26T23:24:55.820Z,9.57
2023-04-26T23:27:24.859Z,10.05
2023-04-26T23:29:52.011Z,10.35
2023-04-26T23:32:19.126Z,10.32
2023-04-26T23:34:46.022Z,11.40
2023-04-26T23:37:12.938Z,9.82
2023-04-26T23:39:39.849Z,10.98
2023-04-26T23:42:06.854Z,11.18
2023-04-26T23:44:33.859Z,9.75
2023-04-26T23:47:01.213Z,10.85
2023-04-26T23:49:28.387Z,9.70
2023-04-26T23:51:55.546Z,10.55
2023-04-26T23:54:22.672Z,10.25
2023-04-26T23:56:49.554Z,10.43
2023-04-26T23:59:17.098Z,11.20
